sensor_id;sensor_type;location;lat;lon;timestamp;pressure;altitude;pressure_sealevel;temperature;humidity
70445;BME280;57902;49.638;11.070;2023-07-20T00:01:45;97947.69;;;17.51;100.00
70445;BME280;57902;49.638;11.070;2023-07-20T00:04:13;97953.69;;;17.53;100.00
70445;BME280;57902;49.638;11.070;2023-07-20T00:06:40;97942.69;;;17.48;100.00
70445;BME280;57902;49.638;11.070;2023-07-20T00:09:07;97945.09;;;17.51;100.00
70445;BME280;57902;49.638;11.070;2023-07-20T00:11:36;97936.44;;;17.51;100.00
70445;BME280;57902;49.638;11.070;2023-07-20T00:14:04;97944.66;;;17.44;100.00
70445;BME280;57902;49.638;11.070;2023-07-20T00:16:31;97941.22;;;17.44;100.00
70445;BME280;57902;49.638;11.070;2023-07-20T00:18:58;97945.88;;;17.39;100.00
70445;BME280;57902;49.638;11.070;2023-07-20T00:21:25;97942.53;;;17.37;100.00
70445;BME280;57902;49.638;11.070;2023-07-20T00:23:52;97944.69;;;17.30;100.00
70445;BME280;57902;49.638;11.070;2023-07-20T00:26:18;97923.94;;;17.28;100.00
70445;BME280;57902;49.638;11.070;2023-07-20T00:28:45;97925.78;;;17.26;100.00
70445;BME280;57902;49.638;11.070;2023-07-20T00:31:11;97937.16;;;17.25;100.00
70445;BME280;57902;49.638;11.070;2023-07-20T00:33:38;97940.78;;;17.23;100.00
70445;BME280;57902;49.638;11.070;2023-07-20T00:36:05;97946.00;;;17.23;100.00
70445;BME280;57902;49.638;11.070;2023-07-20T00:38:31;97940.13;;;17.19;100.00
70445;BME280;57902;49.638;11.070;2023-07-20T00:40:58;97937.00;;;17.14;100.00
70445;BME280;57902;49.638;11.070;2023-07-20T00:43:24;97930.47;;;17.07;100.00
70445;BME280;57902;49.638;11.070;2023-07-20T00:45:51;97921.75;;;17.08;100.00
70445;BME280;57902;49.638;11.070;2023-07-20T00:48:18;97924.66;;;17.03;100.00
70445;BME280;57902;49.638;11.070;2023-07-20T00:50:46;97920.56;;;16.99;100.00
70445;BME280;57902;49.638;11.070;2023-07-20T00:53:13;97915.72;;;16.93;100.00
70445;BME280;57902;49.638;11.070;2023-07-20T00:55:40;97937.28;;;16.95;100.00
70445;BME280;57902;49.638;11.070;2023-07-20T00:58:08;97950.41;;;16.93;100.00
70445;BME280;57902;49.638;11.070;2023-07-20T01:00:34;97943.13;;;16.99;100.00
70445;BME280;57902;49.638;11.070;2023-07-20T01:03:01;97935.31;;;16.99;100.00
70445;BME280;57902;49.638;11.070;2023-07-20T01:08:18;97938.50;;;16.89;100.00
70445;BME280;57902;49.638;11.070;2023-07-20T01:10:54;97935.31;;;16.84;100.00
70445;BME280;57902;49.638;11.070;2023-07-20T01:13:25;97939.56;;;16.85;100.00
70445;BME280;57902;49.638;11.070;2023-07-20T01:16:02;97935.31;;;16.84;100.00
70445;BME280;57902;49.638;11.070;2023-07-20T01:18:29;97950.19;;;16.82;100.00
70445;BME280;57902;49.638;11.070;2023-07-20T01:21:01;97945.06;;;16.80;100.00
70445;BME280;57902;49.638;11.070;2023-07-20T01:23:48;97937.91;;;16.84;100.00
70445;BME280;57902;49.638;11.070;2023-07-20T01:29:22;97927.50;;;16.70;100.00
70445;BME280;57902;49.638;11.070;2023-07-20T01:31:54;97927.41;;;16.71;100.00
70445;BME280;57902;49.638;11.070;2023-07-20T01:34:22;97929.44;;;16.66;100.00
70445;BME280;57902;49.638;11.070;2023-07-20T01:36:50;97931.22;;;16.66;100.00
70445;BME280;57902;49.638;11.070;2023-07-20T01:39:19;97941.44;;;16.69;100.00
70445;BME280;57902;49.638;11.070;2023-07-20T01:41:47;97939.66;;;16.69;100.00
70445;BME280;57902;49.638;11.070;2023-07-20T01:44:14;97935.84;;;16.75;100.00
70445;BME280;57902;49.638;11.070;2023-07-20T01:46:40;97937.16;;;16.82;100.00
70445;BME280;57902;49.638;11.070;2023-07-20T01:49:07;97943.03;;;16.86;100.00
70445;BME280;57902;49.638;11.070;2023-07-20T01:51:33;97945.38;;;16.90;100.00
70445;BME280;57902;49.638;11.070;2023-07-20T01:54:00;97952.09;;;16.94;100.00
70445;BME280;57902;49.638;11.070;2023-07-20T01:56:27;97946.88;;;16.94;100.00
70445;BME280;57902;49.638;11.070;2023-07-20T01:58:53;97950.41;;;16.93;100.00
70445;BME280;57902;49.638;11.070;2023-07-20T02:01:20;97952.81;;;16.96;100.00
70445;BME280;57902;49.638;11.070;2023-07-20T02:03:46;97947.22;;;17.03;100.00
70445;BME280;57902;49.638;11.070;2023-07-20T02:06:13;97946.13;;;17.07;100.00
70445;BME280;57902;49.638;11.070;2023-07-20T02:08:42;97945.09;;;17.09;100.00
70445;BME280;57902;49.638;11.070;2023-07-20T02:11:09;97959.69;;;17.12;100.00
70445;BME280;57902;49.638;11.070;2023-07-20T02:13:36;97956.81;;;17.17;100.00
70445;BME280;57902;49.638;11.070;2023-07-20T02:16:03;97965.53;;;17.16;100.00
70445;BME280;57902;49.638;11.070;2023-07-20T02:18:30;97959.31;;;17.18;100.00
70445;BME280;57902;49.638;11.070;2023-07-20T02:21:00;97954.09;;;17.18;100.00
70445;BME280;57902;49.638;11.070;2023-07-20T02:23:26;97962.03;;;17.17;100.00
70445;BME280;57902;49.638;11.070;2023-07-20T02:25:53;97964.72;;;17.15;100.00
70445;BME280;57902;49.638;11.070;2023-07-20T02:28:20;97975.31;;;17.12;100.00
70445;BME280;57902;49.638;11.070;2023-07-20T02:30:46;97979.69;;;17.11;100.00
70445;BME280;57902;49.638;11.070;2023-07-20T02:33:13;97977.06;;;17.11;100.00
70445;BME280;57902;49.638;11.070;2023-07-20T02:35:40;97985.81;;;17.10;100.00
70445;BME280;57902;49.638;11.070;2023-07-20T02:38:07;97989.00;;;17.16;100.00
70445;BME280;57902;49.638;11.070;2023-07-20T02:40:33;97989.91;;;17.14;100.00
70445;BME280;57902;49.638;11.070;2023-07-20T02:43:00;97985.09;;;17.08;100.00
70445;BME280;57902;49.638;11.070;2023-07-20T02:45:26;97986.09;;;17.06;100.00
70445;BME280;57902;49.638;11.070;2023-07-20T02:47:53;97991.50;;;17.03;100.00
70445;BME280;57902;49.638;11.070;2023-07-20T02:50:19;97981.38;;;16.98;100.00
70445;BME280;57902;49.638;11.070;2023-07-20T02:52:46;97983.13;;;16.98;100.00
70445;BME280;57902;49.638;11.070;2023-07-20T02:55:12;97986.44;;;16.85;100.00
70445;BME280;57902;49.638;11.070;2023-07-20T02:57:39;97987.63;;;16.79;100.00
70445;BME280;57902;49.638;11.070;2023-07-20T03:00:07;97982.72;;;16.75;100.00
70445;BME280;57902;49.638;11.070;2023-07-20T03:02:34;97980.47;;;16.69;100.00
70445;BME280;57902;49.638;11.070;2023-07-20T03:05:02;97985.97;;;16.64;100.00
70445;BME280;57902;49.638;11.070;2023-07-20T03:07:32;97982.78;;;16.59;100.00
70445;BME280;57902;49.638;11.070;2023-07-20T03:09:58;97987.53;;;16.52;100.00
70445;BME280;57902;49.638;11.070;2023-07-20T03:12:25;97993.09;;;16.46;100.00
70445;BME280;57902;49.638;11.070;2023-07-20T03:14:52;97993.41;;;16.40;100.00
70445;BME280;57902;49.638;11.070;2023-07-20T03:17:19;97996.03;;;16.40;100.00
70445;BME280;57902;49.638;11.070;2023-07-20T03:19:47;98005.69;;;16.38;100.00
70445;BME280;57902;49.638;11.070;2023-07-20T03:22:13;98007.56;;;16.36;100.00
70445;BME280;57902;49.638;11.070;2023-07-20T03:24:40;98010.25;;;16.34;100.00
70445;BME280;57902;49.638;11.070;2023-07-20T03:27:06;98004.38;;;16.31;100.00
70445;BME280;57902;49.638;11.070;2023-07-20T03:29:33;98025.19;;;16.31;100.00
70445;BME280;57902;49.638;11.070;2023-07-20T03:31:59;98017.97;;;16.36;100.00
70445;BME280;57902;49.638;11.070;2023-07-20T03:34:26;98019.44;;;16.40;100.00
70445;BME280;57902;49.638;11.070;2023-07-20T03:36:53;98015.00;;;16.42;100.00
70445;BME280;57902;49.638;11.070;2023-07-20T03:39:19;98014.91;;;16.43;100.00
70445;BME280;57902;49.638;11.070;2023-07-20T03:41:46;98014.81;;;16.45;100.00
70445;BME280;57902;49.638;11.070;2023-07-20T03:44:12;98013.72;;;16.49;100.00
70445;BME280;57902;49.638;11.070;2023-07-20T03:46:39;98022.44;;;16.48;100.00
70445;BME280;57902;49.638;11.070;2023-07-20T03:49:06;98017.34;;;16.47;100.00
70445;BME280;57902;49.638;11.070;2023-07-20T03:51:32;98018.25;;;16.45;100.00
70445;BME280;57902;49.638;11.070;2023-07-20T03:53:59;98025.22;;;16.45;100.00
70445;BME280;57902;49.638;11.070;2023-07-20T03:56:25;98018.16;;;16.47;100.00
70445;BME280;57902;49.638;11.070;2023-07-20T03:58:52;98023.03;;;16.53;100.00
70445;BME280;57902;49.638;11.070;2023-07-20T04:01:19;98032.66;;;16.51;100.00
70445;BME280;57902;49.638;11.070;2023-07-20T04:03:46;98035.94;;;16.55;100.00
70445;BME280;57902;49.638;11.070;2023-07-20T04:06:15;98030.28;;;16.62;100.00
70445;BME280;57902;49.638;11.070;2023-07-20T04:08:44;98042.84;;;16.70;100.00
70445;BME280;57902;49.638;11.070;2023-07-20T04:11:11;98046.47;;;16.68;100.00
70445;BME280;57902;49.638;11.070;2023-07-20T04:13:37;98045.75;;;16.80;100.00
70445;BME280;57902;49.638;11.070;2023-07-20T04:16:04;98048.09;;;16.85;100.00
70445;BME280;57902;49.638;11.070;2023-07-20T04:18:30;98051.56;;;17.00;100.00
70445;BME280;57902;49.638;11.070;2023-07-20T04:20:57;98051.88;;;17.09;100.00
70445;BME280;57902;49.638;11.070;2023-07-20T04:23:23;98053.81;;;17.20;100.00
70445;BME280;57902;49.638;11.070;2023-07-20T04:25:51;98058.41;;;17.31;100.00
70445;BME280;57902;49.638;11.070;2023-07-20T04:28:18;98056.81;;;17.43;100.00
70445;BME280;57902;49.638;11.070;2023-07-20T04:30:44;98057.53;;;17.45;100.00
70445;BME280;57902;49.638;11.070;2023-07-20T04:33:11;98063.47;;;17.47;100.00
70445;BME280;57902;49.638;11.070;2023-07-20T04:38:15;98065.06;;;17.64;100.00
70445;BME280;57902;49.638;11.070;2023-07-20T04:40:45;98054.63;;;17.78;100.00
70445;BME280;57902;49.638;11.070;2023-07-20T04:43:13;98059.72;;;17.80;100.00
70445;BME280;57902;49.638;11.070;2023-07-20T04:45:39;98060.66;;;17.93;100.00
70445;BME280;57902;49.638;11.070;2023-07-20T04:48:09;98064.38;;;18.04;100.00
70445;BME280;57902;49.638;11.070;2023-07-20T04:50:45;98068.06;;;18.14;100.00
70445;BME280;57902;49.638;11.070;2023-07-20T04:53:12;98072.47;;;18.26;100.00
70445;BME280;57902;49.638;11.070;2023-07-20T04:55:39;98066.69;;;18.35;100.00
70445;BME280;57902;49.638;11.070;2023-07-20T04:58:06;98076.41;;;18.46;100.00
70445;BME280;57902;49.638;11.070;2023-07-20T05:00:33;98070.69;;;18.54;100.00
70445;BME280;57902;49.638;11.070;2023-07-20T05:03:00;98069.50;;;18.85;99.78
70445;BME280;57902;49.638;11.070;2023-07-20T05:05:28;98069.84;;;19.06;97.58
70445;BME280;57902;49.638;11.070;2023-07-20T05:07:54;98073.72;;;19.14;95.14
70445;BME280;57902;49.638;11.070;2023-07-20T05:10:21;98080.41;;;19.18;94.55
70445;BME280;57902;49.638;11.070;2023-07-20T05:12:47;98080.31;;;19.32;94.27
70445;BME280;57902;49.638;11.070;2023-07-20T05:15:14;98082.22;;;19.67;92.36
70445;BME280;57902;49.638;11.070;2023-07-20T05:17:41;98076.25;;;19.91;89.28
70445;BME280;57902;49.638;11.070;2023-07-20T05:20:07;98079.47;;;20.19;90.25
70445;BME280;57902;49.638;11.070;2023-07-20T05:22:37;98086.50;;;21.02;82.38
70445;BME280;57902;49.638;11.070;2023-07-20T05:25:07;98086.31;;;21.50;79.68
70445;BME280;57902;49.638;11.070;2023-07-20T05:27:38;98085.97;;;21.66;77.89
70445;BME280;57902;49.638;11.070;2023-07-20T05:30:06;98087.16;;;21.74;75.34
70445;BME280;57902;49.638;11.070;2023-07-20T05:32:36;98086.78;;;21.44;75.55
70445;BME280;57902;49.638;11.070;2023-07-20T05:35:03;98085.81;;;21.34;77.22
70445;BME280;57902;49.638;11.070;2023-07-20T05:37:29;98095.72;;;21.30;76.77
70445;BME280;57902;49.638;11.070;2023-07-20T05:39:57;98086.81;;;20.86;79.99
70445;BME280;57902;49.638;11.070;2023-07-20T05:42:23;98083.31;;;20.74;80.16
70445;BME280;57902;49.638;11.070;2023-07-20T05:44:50;98086.13;;;20.60;81.51
70445;BME280;57902;49.638;11.070;2023-07-20T05:47:19;98093.47;;;20.55;82.37
70445;BME280;57902;49.638;11.070;2023-07-20T05:49:45;98082.25;;;20.77;80.45
70445;BME280;57902;49.638;11.070;2023-07-20T05:52:13;98086.25;;;20.94;79.11
70445;BME280;57902;49.638;11.070;2023-07-20T05:54:39;98087.28;;;20.80;77.37
70445;BME280;57902;49.638;11.070;2023-07-20T05:57:07;98084.53;;;20.82;76.68
70445;BME280;57902;49.638;11.070;2023-07-20T05:59:34;98085.38;;;20.58;78.67
70445;BME280;57902;49.638;11.070;2023-07-20T06:02:04;98085.00;;;20.75;78.72
70445;BME280;57902;49.638;11.070;2023-07-20T06:04:31;98092.78;;;21.69;74.71
70445;BME280;57902;49.638;11.070;2023-07-20T06:06:59;98100.09;;;22.85;69.57
70445;BME280;57902;49.638;11.070;2023-07-20T06:09:30;98097.75;;;23.96;65.22
70445;BME280;57902;49.638;11.070;2023-07-20T06:11:58;98091.31;;;24.88;61.06
70445;BME280;57902;49.638;11.070;2023-07-20T06:14:27;98106.31;;;25.82;55.47
70445;BME280;57902;49.638;11.070;2023-07-20T06:16:58;98088.56;;;26.30;54.01
70445;BME280;57902;49.638;11.070;2023-07-20T06:19:45;98090.31;;;26.76;52.56
70445;BME280;57902;49.638;11.070;2023-07-20T06:22:23;98095.38;;;26.69;50.13
70445;BME280;57902;49.638;11.070;2023-07-20T06:24:52;98090.63;;;26.73;50.43
70445;BME280;57902;49.638;11.070;2023-07-20T06:27:31;98096.38;;;27.38;48.81
70445;BME280;57902;49.638;11.070;2023-07-20T06:29:59;98104.72;;;27.94;46.64
70445;BME280;57902;49.638;11.070;2023-07-20T06:32:33;98097.59;;;27.52;48.96
70445;BME280;57902;49.638;11.070;2023-07-20T06:35:07;98102.13;;;27.08;48.45
70445;BME280;57902;49.638;11.070;2023-07-20T06:37:58;98097.84;;;25.89;51.08
70445;BME280;57902;49.638;11.070;2023-07-20T06:40:33;98095.59;;;25.09;52.84
70445;BME280;57902;49.638;11.070;2023-07-20T06:43:03;98097.19;;;25.77;51.85
70445;BME280;57902;49.638;11.070;2023-07-20T06:45:39;98091.97;;;25.95;51.29
70445;BME280;57902;49.638;11.070;2023-07-20T06:48:15;98091.44;;;26.37;48.68
70445;BME280;57902;49.638;11.070;2023-07-20T06:50:44;98088.59;;;27.19;48.04
70445;BME280;57902;49.638;11.070;2023-07-20T06:53:16;98091.09;;;28.32;43.10
70445;BME280;57902;49.638;11.070;2023-07-20T06:55:47;98096.25;;;29.00;41.26
70445;BME280;57902;49.638;11.070;2023-07-20T06:58:14;98091.50;;;28.62;44.32
70445;BME280;57902;49.638;11.070;2023-07-20T07:00:40;98105.06;;;29.25;40.93
70445;BME280;57902;49.638;11.070;2023-07-20T07:03:07;98105.31;;;29.55;38.76
70445;BME280;57902;49.638;11.070;2023-07-20T07:05:37;98094.81;;;28.97;40.54
70445;BME280;57902;49.638;11.070;2023-07-20T07:08:07;98102.53;;;29.88;38.69
70445;BME280;57902;49.638;11.070;2023-07-20T07:10:35;98093.31;;;30.61;37.58
70445;BME280;57902;49.638;11.070;2023-07-20T07:13:03;98095.47;;;30.66;37.96
70445;BME280;57902;49.638;11.070;2023-07-20T07:15:31;98092.66;;;31.20;35.17
70445;BME280;57902;49.638;11.070;2023-07-20T07:17:58;98092.84;;;30.58;35.56
70445;BME280;57902;49.638;11.070;2023-07-20T07:20:26;98089.94;;;29.17;38.62
70445;BME280;57902;49.638;11.070;2023-07-20T07:22:54;98092.88;;;29.95;36.94
70445;BME280;57902;49.638;11.070;2023-07-20T07:25:22;98091.63;;;29.26;39.95
70445;BME280;57902;49.638;11.070;2023-07-20T07:27:49;98084.16;;;29.70;39.12
70445;BME280;57902;49.638;11.070;2023-07-20T07:30:16;98087.66;;;31.02;34.75
70445;BME280;57902;49.638;11.070;2023-07-20T07:32:43;98091.25;;;29.94;37.87
70445;BME280;57902;49.638;11.070;2023-07-20T07:35:09;98092.72;;;30.28;36.25
70445;BME280;57902;49.638;11.070;2023-07-20T07:37:36;98085.88;;;30.57;36.42
70445;BME280;57902;49.638;11.070;2023-07-20T07:40:23;98087.16;;;30.61;35.95
70445;BME280;57902;49.638;11.070;2023-07-20T07:42:49;98084.25;;;30.94;35.25
70445;BME280;57902;49.638;11.070;2023-07-20T07:45:16;98080.03;;;30.99;36.93
70445;BME280;57902;49.638;11.070;2023-07-20T07:47:43;98092.88;;;32.80;31.35
70445;BME280;57902;49.638;11.070;2023-07-20T07:50:10;98090.59;;;32.12;33.13
70445;BME280;57902;49.638;11.070;2023-07-20T07:52:36;98088.38;;;32.01;30.96
70445;BME280;57902;49.638;11.070;2023-07-20T07:55:04;98090.59;;;31.08;35.93
70445;BME280;57902;49.638;11.070;2023-07-20T07:57:30;98096.66;;;32.06;31.82
70445;BME280;57902;49.638;11.070;2023-07-20T07:59:57;98090.34;;;31.47;31.40
70445;BME280;57902;49.638;11.070;2023-07-20T08:02:23;98085.19;;;29.04;35.47
70445;BME280;57902;49.638;11.070;2023-07-20T08:04:50;98094.41;;;29.81;35.05
70445;BME280;57902;49.638;11.070;2023-07-20T08:07:19;98091.94;;;30.19;35.53
70445;BME280;57902;49.638;11.070;2023-07-20T08:09:45;98092.78;;;30.66;32.13
70445;BME280;57902;49.638;11.070;2023-07-20T08:12:12;98105.69;;;30.54;33.07
70445;BME280;57902;49.638;11.070;2023-07-20T08:14:39;98094.75;;;30.41;33.88
70445;BME280;57902;49.638;11.070;2023-07-20T08:17:06;98099.66;;;29.58;36.56
70445;BME280;57902;49.638;11.070;2023-07-20T08:19:33;98099.22;;;29.94;33.30
70445;BME280;57902;49.638;11.070;2023-07-20T08:22:00;98100.53;;;30.52;30.86
70445;BME280;57902;49.638;11.070;2023-07-20T08:24:26;98094.75;;;30.17;35.09
70445;BME280;57902;49.638;11.070;2023-07-20T08:26:53;98099.94;;;30.42;31.16
70445;BME280;57902;49.638;11.070;2023-07-20T08:29:20;98090.63;;;30.38;33.53
70445;BME280;57902;49.638;11.070;2023-07-20T08:31:47;98091.28;;;30.40;32.62
70445;BME280;57902;49.638;11.070;2023-07-20T08:34:14;98076.19;;;29.13;32.70
70445;BME280;57902;49.638;11.070;2023-07-20T08:36:57;98089.19;;;30.04;31.78
70445;BME280;57902;49.638;11.070;2023-07-20T08:39:24;98102.06;;;30.15;33.74
70445;BME280;57902;49.638;11.070;2023-07-20T08:41:51;98093.84;;;30.02;32.81
70445;BME280;57902;49.638;11.070;2023-07-20T08:44:21;98092.78;;;30.11;31.35
70445;BME280;57902;49.638;11.070;2023-07-20T08:46:49;98088.88;;;30.53;30.79
70445;BME280;57902;49.638;11.070;2023-07-20T08:49:17;98101.06;;;30.16;30.99
70445;BME280;57902;49.638;11.070;2023-07-20T08:51:46;98091.94;;;29.31;32.12
70445;BME280;57902;49.638;11.070;2023-07-20T08:54:13;98095.09;;;29.10;33.41
70445;BME280;57902;49.638;11.070;2023-07-20T08:56:41;98096.09;;;29.34;33.41
70445;BME280;57902;49.638;11.070;2023-07-20T08:59:09;98090.13;;;28.99;34.71
70445;BME280;57902;49.638;11.070;2023-07-20T09:01:36;98092.13;;;28.89;33.31
70445;BME280;57902;49.638;11.070;2023-07-20T09:04:05;98084.34;;;28.79;33.61
70445;BME280;57902;49.638;11.070;2023-07-20T09:06:32;98088.94;;;28.27;33.79
70445;BME280;57902;49.638;11.070;2023-07-20T09:09:01;98097.16;;;28.00;33.46
70445;BME280;57902;49.638;11.070;2023-07-20T09:11:28;98089.75;;;27.77;34.87
70445;BME280;57902;49.638;11.070;2023-07-20T09:14:05;98089.44;;;26.93;33.44
70445;BME280;57902;49.638;11.070;2023-07-20T09:16:33;98090.59;;;26.18;36.78
70445;BME280;57902;49.638;11.070;2023-07-20T09:19:15;98086.56;;;26.32;37.79
70445;BME280;57902;49.638;11.070;2023-07-20T09:21:47;98086.88;;;26.29;37.09
70445;BME280;57902;49.638;11.070;2023-07-20T09:24:16;98085.06;;;26.66;36.15
70445;BME280;57902;49.638;11.070;2023-07-20T09:26:45;98084.41;;;26.64;36.61
70445;BME280;57902;49.638;11.070;2023-07-20T09:29:14;98091.81;;;26.78;36.15
70445;BME280;57902;49.638;11.070;2023-07-20T09:31:58;98083.47;;;26.91;35.76
70445;BME280;57902;49.638;11.070;2023-07-20T09:34:28;98082.13;;;26.87;37.29
70445;BME280;57902;49.638;11.070;2023-07-20T09:36:59;98087.72;;;26.84;37.63
70445;BME280;57902;49.638;11.070;2023-07-20T09:39:27;98090.03;;;27.05;36.42
70445;BME280;57902;49.638;11.070;2023-07-20T09:42:00;98089.25;;;27.13;36.19
70445;BME280;57902;49.638;11.070;2023-07-20T09:44:30;98084.47;;;26.72;34.53
70445;BME280;57902;49.638;11.070;2023-07-20T09:47:03;98085.44;;;25.89;38.88
70445;BME280;57902;49.638;11.070;2023-07-20T09:49:31;98091.09;;;25.94;36.62
70445;BME280;57902;49.638;11.070;2023-07-20T09:52:17;98082.41;;;25.84;38.63
70445;BME280;57902;49.638;11.070;2023-07-20T09:55:08;98078.19;;;26.01;37.39
70445;BME280;57902;49.638;11.070;2023-07-20T09:57:35;98084.09;;;26.13;38.06
70445;BME280;57902;49.638;11.070;2023-07-20T10:00:07;98081.91;;;26.26;34.87
70445;BME280;57902;49.638;11.070;2023-07-20T10:02:45;98079.41;;;26.25;34.74
70445;BME280;57902;49.638;11.070;2023-07-20T10:05:13;98075.56;;;26.19;35.07
70445;BME280;57902;49.638;11.070;2023-07-20T10:07:47;98084.06;;;25.85;37.79
70445;BME280;57902;49.638;11.070;2023-07-20T10:10:18;98075.34;;;25.84;37.04
70445;BME280;57902;49.638;11.070;2023-07-20T10:12:47;98075.56;;;25.91;37.57
70445;BME280;57902;49.638;11.070;2023-07-20T10:15:20;98078.19;;;26.01;37.76
70445;BME280;57902;49.638;11.070;2023-07-20T10:20:33;98066.78;;;26.00;35.88
70445;BME280;57902;49.638;11.070;2023-07-20T10:23:02;98062.34;;;25.91;36.21
70445;BME280;57902;49.638;11.070;2023-07-20T10:25:29;98062.44;;;25.81;36.75
70445;BME280;57902;49.638;11.070;2023-07-20T10:27:56;98060.94;;;25.97;36.89
70445;BME280;57902;49.638;11.070;2023-07-20T10:30:26;98044.75;;;26.10;36.12
70445;BME280;57902;49.638;11.070;2023-07-20T10:32:53;98044.59;;;26.29;34.77
70445;BME280;57902;49.638;11.070;2023-07-20T10:35:20;98048.69;;;26.24;34.61
70445;BME280;57902;49.638;11.070;2023-07-20T10:37:48;98047.09;;;26.31;35.68
70445;BME280;57902;49.638;11.070;2023-07-20T10:40:33;98041.13;;;26.29;35.62
70445;BME280;57902;49.638;11.070;2023-07-20T10:43:07;98044.38;;;26.41;35.20
70445;BME280;57902;49.638;11.070;2023-07-20T10:45:35;98044.78;;;26.46;33.84
70445;BME280;57902;49.638;11.070;2023-07-20T10:48:06;98038.56;;;26.99;32.01
70445;BME280;57902;49.638;11.070;2023-07-20T10:50:33;98039.53;;;27.24;32.82
70445;BME280;57902;49.638;11.070;2023-07-20T10:53:04;98041.13;;;27.09;33.52
70445;BME280;57902;49.638;11.070;2023-07-20T10:55:32;98038.41;;;27.01;35.68
70445;BME280;57902;49.638;11.070;2023-07-20T11:00:36;98042.25;;;26.80;33.54
70445;BME280;57902;49.638;11.070;2023-07-20T11:03:04;98037.06;;;26.97;31.93
70445;BME280;57902;49.638;11.070;2023-07-20T11:05:38;98034.97;;;26.64;33.82
70445;BME280;57902;49.638;11.070;2023-07-20T11:08:09;98038.13;;;26.42;34.90
70445;BME280;57902;49.638;11.070;2023-07-20T11:10:36;98041.75;;;26.41;33.97
70445;BME280;57902;49.638;11.070;2023-07-20T11:13:22;98026.81;;;26.31;34.07
70445;BME280;57902;49.638;11.070;2023-07-20T11:18:25;98023.56;;;26.19;34.27
70445;BME280;57902;49.638;11.070;2023-07-20T11:20:53;98026.19;;;26.19;34.98
70445;BME280;57902;49.638;11.070;2023-07-20T11:23:20;98026.94;;;26.12;35.04
70445;BME280;57902;49.638;11.070;2023-07-20T11:25:47;98026.75;;;25.95;36.08
70445;BME280;57902;49.638;11.070;2023-07-20T11:28:14;98029.41;;;25.67;35.45
70445;BME280;57902;49.638;11.070;2023-07-20T11:30:40;98028.66;;;25.57;35.38
70445;BME280;57902;49.638;11.070;2023-07-20T11:33:10;98035.41;;;25.42;36.23
70445;BME280;57902;49.638;11.070;2023-07-20T11:35:48;98038.47;;;25.27;37.38
70445;BME280;57902;49.638;11.070;2023-07-20T11:38:17;98032.38;;;25.27;37.34
70445;BME280;57902;49.638;11.070;2023-07-20T11:40:45;98028.09;;;25.16;37.05
70445;BME280;57902;49.638;11.070;2023-07-20T11:43:13;98023.38;;;25.20;38.39
70445;BME280;57902;49.638;11.070;2023-07-20T11:45:43;98035.97;;;25.36;38.54
70445;BME280;57902;49.638;11.070;2023-07-20T11:48:17;98032.50;;;25.63;37.26
70445;BME280;57902;49.638;11.070;2023-07-20T11:50:44;98021.81;;;25.82;37.06
70445;BME280;57902;49.638;11.070;2023-07-20T11:53:11;98008.25;;;25.95;36.25
70445;BME280;57902;49.638;11.070;2023-07-20T11:55:39;98012.66;;;26.05;36.03
70445;BME280;57902;49.638;11.070;2023-07-20T11:58:08;98012.59;;;26.14;34.54
70445;BME280;57902;49.638;11.070;2023-07-20T12:00:38;98013.19;;;25.90;35.23
70445;BME280;57902;49.638;11.070;2023-07-20T12:03:06;98017.13;;;25.58;36.74
70445;BME280;57902;49.638;11.070;2023-07-20T12:05:34;98006.75;;;25.47;36.45
70445;BME280;57902;49.638;11.070;2023-07-20T12:08:21;98003.72;;;25.42;38.12
70445;BME280;57902;49.638;11.070;2023-07-20T12:10:48;98000.31;;;25.59;36.04
70445;BME280;57902;49.638;11.070;2023-07-20T12:13:17;97998.34;;;25.61;36.13
70445;BME280;57902;49.638;11.070;2023-07-20T12:15:44;97993.63;;;25.83;35.31
70445;BME280;57902;49.638;11.070;2023-07-20T12:18:11;97995.28;;;25.84;35.17
70445;BME280;57902;49.638;11.070;2023-07-20T12:20:40;97994.69;;;25.90;36.29
70445;BME280;57902;49.638;11.070;2023-07-20T12:23:11;97998.56;;;26.14;35.71
70445;BME280;57902;49.638;11.070;2023-07-20T12:28:19;97984.03;;;26.54;32.89
70445;BME280;57902;49.638;11.070;2023-07-20T12:30:46;97990.41;;;26.25;33.83
70445;BME280;57902;49.638;11.070;2023-07-20T12:33:14;97989.03;;;26.03;34.22
70445;BME280;57902;49.638;11.070;2023-07-20T12:35:43;97987.13;;;25.95;34.24
70445;BME280;57902;49.638;11.070;2023-07-20T12:38:10;97984.38;;;26.15;34.10
70445;BME280;57902;49.638;11.070;2023-07-20T12:40:37;97975.56;;;26.06;35.12
70445;BME280;57902;49.638;11.070;2023-07-20T12:43:03;97980.91;;;26.14;33.82
70445;BME280;57902;49.638;11.070;2023-07-20T12:45:33;97989.44;;;26.08;33.57
70445;BME280;57902;49.638;11.070;2023-07-20T12:47:59;97979.56;;;26.28;34.25
70445;BME280;57902;49.638;11.070;2023-07-20T12:50:26;97979.28;;;26.40;33.50
70445;BME280;57902;49.638;11.070;2023-07-20T12:52:53;97972.66;;;26.35;34.63
70445;BME280;57902;49.638;11.070;2023-07-20T12:55:23;97971.91;;;26.25;33.53
70445;BME280;57902;49.638;11.070;2023-07-20T12:57:49;97973.19;;;26.39;31.40
70445;BME280;57902;49.638;11.070;2023-07-20T13:00:16;97973.94;;;26.31;32.39
70445;BME280;57902;49.638;11.070;2023-07-20T13:02:43;97963.59;;;26.38;32.42
70445;BME280;57902;49.638;11.070;2023-07-20T13:05:10;97970.19;;;26.60;32.80
70445;BME280;57902;49.638;11.070;2023-07-20T13:07:38;97959.53;;;26.70;32.41
70445;BME280;57902;49.638;11.070;2023-07-20T13:10:10;97963.84;;;26.53;32.80
70445;BME280;57902;49.638;11.070;2023-07-20T13:12:38;97968.47;;;26.51;32.52